sensor_id;sensor_type;location;lat;lon;timestamp;pressure;altitude;pressure_sealevel;temperature
34125;BMP280;20110;53.120;5.786;2022-09-21T00:01:14;102702.66;;;14.34
34125;BMP280;20110;53.120;5.786;2022-09-21T00:03:41;102728.41;;;14.48
34125;BMP280;20110;53.120;5.786;2022-09-21T00:06:15;102710.94;;;14.31
34125;BMP280;20110;53.120;5.786;2022-09-21T00:08:43;102706.34;;;14.25
34125;BMP280;20110;53.120;5.786;2022-09-21T00:11:14;102723.31;;;14.39
34125;BMP280;20110;53.120;5.786;2022-09-21T00:13:41;102703.16;;;14.21
34125;BMP280;20110;53.120;5.786;2022-09-21T00:16:09;102707.53;;;14.19
34125;BMP280;20110;53.120;5.786;2022-09-21T00:18:36;102729.41;;;14.28
34125;BMP280;20110;53.120;5.786;2022-09-21T00:21:15;102723.09;;;14.20
34125;BMP280;20110;53.120;5.786;2022-09-21T00:23:41;102726.50;;;14.15
34125;BMP280;20110;53.120;5.786;2022-09-21T00:26:23;102719.22;;;13.99
34125;BMP280;20110;53.120;5.786;2022-09-21T00:28:56;102711.94;;;13.94
34125;BMP280;20110;53.120;5.786;2022-09-21T00:31:23;102720.44;;;14.04
34125;BMP280;20110;53.120;5.786;2022-09-21T00:33:50;102705.13;;;13.99
34125;BMP280;20110;53.120;5.786;2022-09-21T00:36:21;102726.69;;;14.34
34125;BMP280;20110;53.120;5.786;2022-09-21T00:38:57;102697.31;;;14.23
34125;BMP280;20110;53.120;5.786;2022-09-21T00:41:25;102703.88;;;14.27
34125;BMP280;20110;53.120;5.786;2022-09-21T00:44:30;102727.91;;;14.44
34125;BMP280;20110;53.120;5.786;2022-09-21T00:47:11;102724.75;;;14.35
34125;BMP280;20110;53.120;5.786;2022-09-21T00:49:42;102727.91;;;14.44
34125;BMP280;20110;53.120;5.786;2022-09-21T00:52:10;102732.75;;;14.46
34125;BMP280;20110;53.120;5.786;2022-09-21T00:54:52;102716.53;;;14.33
34125;BMP280;20110;53.120;5.786;2022-09-21T00:57:23;102709.47;;;14.29
34125;BMP280;20110;53.120;5.786;2022-09-21T00:59:54;102709.97;;;14.17
34125;BMP280;20110;53.120;5.786;2022-09-21T01:02:22;102712.63;;;14.17
34125;BMP280;20110;53.120;5.786;2022-09-21T01:04:51;102711.19;;;14.10
34125;BMP280;20110;53.120;5.786;2022-09-21T01:07:24;102699.78;;;13.99
34125;BMP280;20110;53.120;5.786;2022-09-21T01:09:54;102719.94;;;14.11
34125;BMP280;20110;53.120;5.786;2022-09-21T01:13:06;102731.34;;;14.11
34125;BMP280;20110;53.120;5.786;2022-09-21T01:19:08;102696.63;;;13.83
34125;BMP280;20110;53.120;5.786;2022-09-21T01:22:06;102717.00;;;13.86
34125;BMP280;20110;53.120;5.786;2022-09-21T01:24:56;102726.75;;;13.84
34125;BMP280;20110;53.120;5.786;2022-09-21T01:28:05;102721.13;;;13.76
34125;BMP280;20110;53.120;5.786;2022-09-21T01:30:36;102714.59;;;13.88
34125;BMP280;20110;53.120;5.786;2022-09-21T01:36:06;102736.19;;;14.13
34125;BMP280;20110;53.120;5.786;2022-09-21T01:38:47;102718.22;;;14.02
34125;BMP280;20110;53.120;5.786;2022-09-21T01:41:20;102726.97;;;14.03
34125;BMP280;20110;53.120;5.786;2022-09-21T01:43:54;102717.28;;;13.83
34125;BMP280;20110;53.120;5.786;2022-09-21T01:46:26;102731.34;;;13.78
34125;BMP280;20110;53.120;5.786;2022-09-21T01:48:59;102723.78;;;13.65
34125;BMP280;20110;53.120;5.786;2022-09-21T01:51:32;102697.53;;;13.41
34125;BMP280;20110;53.120;5.786;2022-09-21T01:54:10;102726.47;;;13.71
34125;BMP280;20110;53.120;5.786;2022-09-21T01:57:18;102725.00;;;13.70
34125;BMP280;20110;53.120;5.786;2022-09-21T01:59:56;102709.94;;;13.55
34125;BMP280;20110;53.120;5.786;2022-09-21T02:02:56;102709.44;;;13.51
34125;BMP280;20110;53.120;5.786;2022-09-21T02:05:27;102690.03;;;13.40
34125;BMP280;20110;53.120;5.786;2022-09-21T02:07:55;102730.31;;;13.59
34125;BMP280;20110;53.120;5.786;2022-09-21T02:10:44;102733.72;;;13.53
34125;BMP280;20110;53.120;5.786;2022-09-21T02:13:13;102703.09;;;13.38
34125;BMP280;20110;53.120;5.786;2022-09-21T02:19:16;102716.41;;;13.27
34125;BMP280;20110;53.120;5.786;2022-09-21T02:22:04;102721.50;;;13.25
34125;BMP280;20110;53.120;5.786;2022-09-21T02:24:48;102704.47;;;13.11
34125;BMP280;20110;53.120;5.786;2022-09-21T02:30:06;102730.97;;;13.31
34125;BMP280;20110;53.120;5.786;2022-09-21T02:41:14;102730.13;;;13.68
34125;BMP280;20110;53.120;5.786;2022-09-21T02:46:37;102712.13;;;13.68
34125;BMP280;20110;53.120;5.786;2022-09-21T02:49:10;102733.03;;;13.81
34125;BMP280;20110;53.120;5.786;2022-09-21T02:51:45;102731.56;;;13.74
34125;BMP280;20110;53.120;5.786;2022-09-21T02:54:16;102719.88;;;13.55
34125;BMP280;20110;53.120;5.786;2022-09-21T02:56:47;102711.88;;;13.44
34125;BMP280;20110;53.120;5.786;2022-09-21T02:59:14;102706.75;;;13.40
34125;BMP280;20110;53.120;5.786;2022-09-21T03:01:41;102675.41;;;13.18
34125;BMP280;20110;53.120;5.786;2022-09-21T03:04:09;102729.34;;;13.50
34125;BMP280;20110;53.120;5.786;2022-09-21T03:06:35;102732.25;;;13.52
34125;BMP280;20110;53.120;5.786;2022-09-21T03:09:01;102728.84;;;13.57
34125;BMP280;20110;53.120;5.786;2022-09-21T03:11:28;102736.41;;;13.81
34125;BMP280;20110;53.120;5.786;2022-09-21T03:13:54;102713.63;;;13.86
34125;BMP280;20110;53.120;5.786;2022-09-21T03:16:19;102730.38;;;13.98
34125;BMP280;20110;53.120;5.786;2022-09-21T03:18:46;102719.94;;;13.83
34125;BMP280;20110;53.120;5.786;2022-09-21T03:21:13;102720.16;;;13.90
34125;BMP280;20110;53.120;5.786;2022-09-21T03:23:39;102713.38;;;13.78
34125;BMP280;20110;53.120;5.786;2022-09-21T03:26:05;102727.69;;;13.81
34125;BMP280;20110;53.120;5.786;2022-09-21T03:28:31;102718.22;;;13.74
34125;BMP280;20110;53.120;5.786;2022-09-21T03:30:57;102716.75;;;13.68
34125;BMP280;20110;53.120;5.786;2022-09-21T03:33:23;102715.03;;;13.59
34125;BMP280;20110;53.120;5.786;2022-09-21T03:35:51;102712.38;;;13.53
34125;BMP280;20110;53.120;5.786;2022-09-21T03:38:18;102743.47;;;13.62
34125;BMP280;20110;53.120;5.786;2022-09-21T03:40:48;102741.47;;;13.57
34125;BMP280;20110;53.120;5.786;2022-09-21T03:43:15;102730.09;;;13.51
34125;BMP280;20110;53.120;5.786;2022-09-21T03:45:42;102741.75;;;13.65
34125;BMP280;20110;53.120;5.786;2022-09-21T03:48:10;102752.44;;;13.70
34125;BMP280;20110;53.120;5.786;2022-09-21T03:50:36;102748.56;;;13.71
34125;BMP280;20110;53.120;5.786;2022-09-21T03:53:03;102740.28;;;13.69
34125;BMP280;20110;53.120;5.786;2022-09-21T03:55:29;102718.69;;;13.56
34125;BMP280;20110;53.120;5.786;2022-09-21T03:57:55;102741.78;;;13.76
34125;BMP280;20110;53.120;5.786;2022-09-21T04:00:21;102731.78;;;13.71
34125;BMP280;20110;53.120;5.786;2022-09-21T04:02:47;102746.66;;;13.88
34125;BMP280;20110;53.120;5.786;2022-09-21T04:05:14;102724.78;;;13.84
34125;BMP280;20110;53.120;5.786;2022-09-21T04:07:42;102721.88;;;13.82
34125;BMP280;20110;53.120;5.786;2022-09-21T04:10:13;102743.47;;;14.01
34125;BMP280;20110;53.120;5.786;2022-09-21T04:12:42;102713.59;;;13.80
34125;BMP280;20110;53.120;5.786;2022-09-21T04:15:13;102735.25;;;13.82
34125;BMP280;20110;53.120;5.786;2022-09-21T04:17:39;102717.72;;;13.70
34125;BMP280;20110;53.120;5.786;2022-09-21T04:20:07;102708.00;;;13.56
34125;BMP280;20110;53.120;5.786;2022-09-21T04:22:34;102725.25;;;13.66
34125;BMP280;20110;53.120;5.786;2022-09-21T04:25:03;102711.63;;;13.53
34125;BMP280;20110;53.120;5.786;2022-09-21T04:27:30;102730.31;;;13.59
34125;BMP280;20110;53.120;5.786;2022-09-21T04:29:56;102741.03;;;13.64
34125;BMP280;20110;53.120;5.786;2022-09-21T04:32:22;102721.06;;;13.48
34125;BMP280;20110;53.120;5.786;2022-09-21T04:34:48;102740.78;;;13.57
34125;BMP280;20110;53.120;5.786;2022-09-21T04:37:13;102723.50;;;13.41
34125;BMP280;20110;53.120;5.786;2022-09-21T04:39:39;102695.53;;;13.19
34125;BMP280;20110;53.120;5.786;2022-09-21T04:42:05;102732.44;;;13.38
34125;BMP280;20110;53.120;5.786;2022-09-21T04:44:31;102709.59;;;13.26
34125;BMP280;20110;53.120;5.786;2022-09-21T04:46:57;102710.81;;;13.25
34125;BMP280;20110;53.120;5.786;2022-09-21T04:49:23;102718.63;;;13.28
34125;BMP280;20110;53.120;5.786;2022-09-21T04:51:49;102696.69;;;13.07
34125;BMP280;20110;53.120;5.786;2022-09-21T04:54:15;102694.72;;;13.02
34125;BMP280;20110;53.120;5.786;2022-09-21T04:56:41;102741.41;;;13.35
34125;BMP280;20110;53.120;5.786;2022-09-21T04:59:07;102704.47;;;13.11
34125;BMP280;20110;53.120;5.786;2022-09-21T05:01:33;102705.22;;;13.11
34125;BMP280;20110;53.120;5.786;2022-09-21T05:03:59;102712.22;;;13.09
34125;BMP280;20110;53.120;5.786;2022-09-21T05:06:32;102715.38;;;13.13
34125;BMP280;20110;53.120;5.786;2022-09-21T05:08:58;102716.41;;;13.21
34125;BMP280;20110;53.120;5.786;2022-09-21T05:11:43;102738.78;;;13.40
34125;BMP280;20110;53.120;5.786;2022-09-21T05:14:10;102737.03;;;13.26
34125;BMP280;20110;53.120;5.786;2022-09-21T05:16:36;102736.75;;;13.18
34125;BMP280;20110;53.120;5.786;2022-09-21T05:19:12;102727.94;;;12.96
34125;BMP280;20110;53.120;5.786;2022-09-21T05:21:43;102723.06;;;12.89
34125;BMP280;20110;53.120;5.786;2022-09-21T05:24:08;102745.66;;;13.04
34125;BMP280;20110;53.120;5.786;2022-09-21T05:26:34;102750.25;;;13.04
34125;BMP280;20110;53.120;5.786;2022-09-21T05:29:01;102734.44;;;12.95
34125;BMP280;20110;53.120;5.786;2022-09-21T05:32:04;102746.59;;;12.96
34125;BMP280;20110;53.120;5.786;2022-09-21T05:35:17;102757.31;;;13.07
34125;BMP280;20110;53.120;5.786;2022-09-21T05:40:50;102759.22;;;13.01
34125;BMP280;20110;53.120;5.786;2022-09-21T05:43:16;102737.56;;;12.82
34125;BMP280;20110;53.120;5.786;2022-09-21T05:45:48;102742.66;;;12.86
34125;BMP280;20110;53.120;5.786;2022-09-21T05:48:21;102757.31;;;13.07
34125;BMP280;20110;53.120;5.786;2022-09-21T05:51:03;102735.72;;;13.05
34125;BMP280;20110;53.120;5.786;2022-09-21T05:57:20;102746.63;;;13.66
34125;BMP280;20110;53.120;5.786;2022-09-21T06:00:18;102754.66;;;13.72
34125;BMP280;20110;53.120;5.786;2022-09-21T06:03:28;102770.19;;;13.79
34125;BMP280;20110;53.120;5.786;2022-09-21T06:05:55;102760.94;;;13.74
34125;BMP280;20110;53.120;5.786;2022-09-21T06:08:21;102744.69;;;13.61
34125;BMP280;20110;53.120;5.786;2022-09-21T06:10:48;102768.94;;;13.69
34125;BMP280;20110;53.120;5.786;2022-09-21T06:13:14;102772.81;;;13.57
34125;BMP280;20110;53.120;5.786;2022-09-21T06:15:40;102756.22;;;13.36
34125;BMP280;20110;53.120;5.786;2022-09-21T06:18:07;102774.19;;;13.41
34125;BMP280;20110;53.120;5.786;2022-09-21T06:20:35;102780.53;;;13.43
34125;BMP280;20110;53.120;5.786;2022-09-21T06:23:08;102778.09;;;13.40
34125;BMP280;20110;53.120;5.786;2022-09-21T06:25:35;102761.81;;;13.32
34125;BMP280;20110;53.120;5.786;2022-09-21T06:28:10;102767.16;;;13.38
34125;BMP280;20110;53.120;5.786;2022-09-21T06:30:38;102772.06;;;13.56
34125;BMP280;20110;53.120;5.786;2022-09-21T06:33:06;102777.19;;;13.65
34125;BMP280;20110;53.120;5.786;2022-09-21T06:35:34;102774.06;;;13.72
34125;BMP280;20110;53.120;5.786;2022-09-21T06:38:06;102763.09;;;13.70
34125;BMP280;20110;53.120;5.786;2022-09-21T06:40:35;102773.38;;;13.94
34125;BMP280;20110;53.120;5.786;2022-09-21T06:43:04;102745.66;;;13.91
34125;BMP280;20110;53.120;5.786;2022-09-21T06:45:30;102775.81;;;14.31
34125;BMP280;20110;53.120;5.786;2022-09-21T06:47:56;102768.25;;;14.52
34125;BMP280;20110;53.120;5.786;2022-09-21T06:50:23;102738.84;;;14.46
34125;BMP280;20110;53.120;5.786;2022-09-21T06:52:49;102753.66;;;14.64
34125;BMP280;20110;53.120;5.786;2022-09-21T06:55:15;102767.94;;;14.83
34125;BMP280;20110;53.120;5.786;2022-09-21T06:57:40;102772.50;;;14.99
34125;BMP280;20110;53.120;5.786;2022-09-21T07:00:10;102773.19;;;15.06
34125;BMP280;20110;53.120;5.786;2022-09-21T07:02:36;102762.72;;;15.13
34125;BMP280;20110;53.120;5.786;2022-09-21T07:05:03;102781.09;;;15.39
34125;BMP280;20110;53.120;5.786;2022-09-21T07:07:29;102749.91;;;15.41
34125;BMP280;20110;53.120;5.786;2022-09-21T07:09:57;102734.84;;;15.44
34125;BMP280;20110;53.120;5.786;2022-09-21T07:12:27;102741.06;;;15.58
34125;BMP280;20110;53.120;5.786;2022-09-21T07:14:53;102768.34;;;15.86
34125;BMP280;20110;53.120;5.786;2022-09-21T07:17:19;102760.72;;;15.96
34125;BMP280;20110;53.120;5.786;2022-09-21T07:19:45;102789.97;;;16.24
34125;BMP280;20110;53.120;5.786;2022-09-21T07:22:11;102783.31;;;16.36
34125;BMP280;20110;53.120;5.786;2022-09-21T07:24:36;102771.94;;;16.48
34125;BMP280;20110;53.120;5.786;2022-09-21T07:27:02;102749.00;;;16.53
34125;BMP280;20110;53.120;5.786;2022-09-21T07:29:29;102786.41;;;17.07
34125;BMP280;20110;53.120;5.786;2022-09-21T07:31:55;102786.81;;;17.30
34125;BMP280;20110;53.120;5.786;2022-09-21T07:34:21;102742.25;;;17.21
34125;BMP280;20110;53.120;5.786;2022-09-21T07:36:47;102788.66;;;17.73
34125;BMP280;20110;53.120;5.786;2022-09-21T07:39:13;102764.97;;;17.71
34125;BMP280;20110;53.120;5.786;2022-09-21T07:41:38;102778.22;;;17.95
34125;BMP280;20110;53.120;5.786;2022-09-21T07:44:04;102781.25;;;18.05
34125;BMP280;20110;53.120;5.786;2022-09-21T07:46:30;102786.75;;;18.26
34125;BMP280;20110;53.120;5.786;2022-09-21T07:48:56;102759.63;;;18.24
34125;BMP280;20110;53.120;5.786;2022-09-21T07:51:24;102765.94;;;18.39
34125;BMP280;20110;53.120;5.786;2022-09-21T07:53:55;102795.69;;;18.68
34125;BMP280;20110;53.120;5.786;2022-09-21T07:56:21;102805.41;;;18.84
34125;BMP280;20110;53.120;5.786;2022-09-21T07:58:48;102777.91;;;18.78
34125;BMP280;20110;53.120;5.786;2022-09-21T08:01:38;102795.25;;;19.03
34125;BMP280;20110;53.120;5.786;2022-09-21T08:04:07;102786.75;;;18.99
34125;BMP280;20110;53.120;5.786;2022-09-21T08:06:35;102804.59;;;19.23
34125;BMP280;20110;53.120;5.786;2022-09-21T08:09:03;102807.13;;;19.28
34125;BMP280;20110;53.120;5.786;2022-09-21T08:11:31;102769.75;;;19.04
34125;BMP280;20110;53.120;5.786;2022-09-21T08:14:01;102792.63;;;19.32
34125;BMP280;20110;53.120;5.786;2022-09-21T08:16:29;102799.34;;;19.38
34125;BMP280;20110;53.120;5.786;2022-09-21T08:18:56;102785.13;;;19.38
34125;BMP280;20110;53.120;5.786;2022-09-21T08:21:22;102802.69;;;19.52
34125;BMP280;20110;53.120;5.786;2022-09-21T08:23:48;102797.47;;;19.54
34125;BMP280;20110;53.120;5.786;2022-09-21T08:26:18;102794.69;;;19.59
34125;BMP280;20110;53.120;5.786;2022-09-21T08:28:46;102801.91;;;19.64
34125;BMP280;20110;53.120;5.786;2022-09-21T08:31:18;102803.56;;;19.67
34125;BMP280;20110;53.120;5.786;2022-09-21T08:33:46;102776.88;;;19.56
34125;BMP280;20110;53.120;5.786;2022-09-21T08:36:12;102777.06;;;19.58
34125;BMP280;20110;53.120;5.786;2022-09-21T08:38:39;102805.09;;;19.84
34125;BMP280;20110;53.120;5.786;2022-09-21T08:44:17;102812.69;;;19.93
34125;BMP280;20110;53.120;5.786;2022-09-21T08:46:54;102802.84;;;19.95
34125;BMP280;20110;53.120;5.786;2022-09-21T08:49:25;102772.75;;;19.84
34125;BMP280;20110;53.120;5.786;2022-09-21T08:52:16;102822.06;;;20.20
34125;BMP280;20110;53.120;5.786;2022-09-21T08:54:59;102807.56;;;20.31
34125;BMP280;20110;53.120;5.786;2022-09-21T08:57:30;102807.06;;;20.47
34125;BMP280;20110;53.120;5.786;2022-09-21T08:59:59;102813.44;;;20.65
34125;BMP280;20110;53.120;5.786;2022-09-21T09:06:04;102819.09;;;20.98
34125;BMP280;20110;53.120;5.786;2022-09-21T09:20:56;102828.00;;;21.44
34125;BMP280;20110;53.120;5.786;2022-09-21T09:24:03;102813.91;;;21.38
34125;BMP280;20110;53.120;5.786;2022-09-21T09:30:20;102829.44;;;21.60
34125;BMP280;20110;53.120;5.786;2022-09-21T09:33:15;102833.00;;;21.70
34125;BMP280;20110;53.120;5.786;2022-09-21T09:35:50;102836.91;;;22.14
34125;BMP280;20110;53.120;5.786;2022-09-21T09:38:24;102839.66;;;23.29
34125;BMP280;20110;53.120;5.786;2022-09-21T09:50:12;102841.72;;;27.35
34125;BMP280;20110;53.120;5.786;2022-09-21T09:52:43;102798.97;;;27.61
34125;BMP280;20110;53.120;5.786;2022-09-21T09:58:43;102829.19;;;28.93
34125;BMP280;20110;53.120;5.786;2022-09-21T10:02:02;102824.66;;;28.97
34125;BMP280;20110;53.120;5.786;2022-09-21T10:04:28;102826.50;;;29.18
34125;BMP280;20110;53.120;5.786;2022-09-21T10:06:55;102812.53;;;29.26
34125;BMP280;20110;53.120;5.786;2022-09-21T10:09:33;102833.38;;;29.44
34125;BMP280;20110;53.120;5.786;2022-09-21T10:12:24;102817.88;;;29.49
34125;BMP280;20110;53.120;5.786;2022-09-21T10:14:57;102817.81;;;29.88
34125;BMP280;20110;53.120;5.786;2022-09-21T10:17:26;102818.13;;;30.21
34125;BMP280;20110;53.120;5.786;2022-09-21T10:20:04;102811.81;;;30.46
34125;BMP280;20110;53.120;5.786;2022-09-21T10:22:30;102807.53;;;30.57
34125;BMP280;20110;53.120;5.786;2022-09-21T10:24:57;102821.06;;;30.82
34125;BMP280;20110;53.120;5.786;2022-09-21T10:27:48;102812.59;;;31.07
34125;BMP280;20110;53.120;5.786;2022-09-21T10:30:35;102818.84;;;31.39
34125;BMP280;20110;53.120;5.786;2022-09-21T10:33:18;102792.84;;;30.95
34125;BMP280;20110;53.120;5.786;2022-09-21T10:35:50;102797.16;;;30.84
34125;BMP280;20110;53.120;5.786;2022-09-21T10:38:19;102815.81;;;31.17
34125;BMP280;20110;53.120;5.786;2022-09-21T10:40:46;102789.03;;;31.31
34125;BMP280;20110;53.120;5.786;2022-09-21T10:43:30;102812.09;;;31.73
34125;BMP280;20110;53.120;5.786;2022-09-21T10:45:57;102808.41;;;31.67
34125;BMP280;20110;53.120;5.786;2022-09-21T10:48:26;102808.66;;;31.57
34125;BMP280;20110;53.120;5.786;2022-09-21T10:50:54;102805.28;;;31.59
34125;BMP280;20110;53.120;5.786;2022-09-21T10:53:31;102805.88;;;31.88
34125;BMP280;20110;53.120;5.786;2022-09-21T10:56:06;102810.88;;;32.10
34125;BMP280;20110;53.120;5.786;2022-09-21T10:58:34;102788.75;;;32.23
34125;BMP280;20110;53.120;5.786;2022-09-21T11:01:12;102776.53;;;32.46
34125;BMP280;20110;53.120;5.786;2022-09-21T11:04:07;102781.34;;;32.63
34125;BMP280;20110;53.120;5.786;2022-09-21T11:06:45;102773.41;;;32.71
34125;BMP280;20110;53.120;5.786;2022-09-21T11:09:28;102806.00;;;33.16
34125;BMP280;20110;53.120;5.786;2022-09-21T11:18:07;102807.34;;;33.15
34125;BMP280;20110;53.120;5.786;2022-09-21T11:20:42;102775.00;;;33.16
34125;BMP280;20110;53.120;5.786;2022-09-21T11:23:51;102800.69;;;33.42
34125;BMP280;20110;53.120;5.786;2022-09-21T11:26:54;102805.56;;;33.04
34125;BMP280;20110;53.120;5.786;2022-09-21T11:29:53;102802.53;;;33.16
34125;BMP280;20110;53.120;5.786;2022-09-21T11:39:09;102780.38;;;33.51
34125;BMP280;20110;53.120;5.786;2022-09-21T11:44:57;102773.84;;;33.62
34125;BMP280;20110;53.120;5.786;2022-09-21T11:53:39;102781.81;;;33.54
34125;BMP280;20110;53.120;5.786;2022-09-21T11:56:43;102796.00;;;33.66
34125;BMP280;20110;53.120;5.786;2022-09-21T11:59:25;102794.50;;;33.61
34125;BMP280;20110;53.120;5.786;2022-09-21T12:07:57;102788.50;;;32.52
34125;BMP280;20110;53.120;5.786;2022-09-21T12:10:42;102782.28;;;32.34
34125;BMP280;20110;53.120;5.786;2022-09-21T12:16:15;102786.69;;;32.41
34125;BMP280;20110;53.120;5.786;2022-09-21T12:18:49;102786.09;;;32.61
34125;BMP280;20110;53.120;5.786;2022-09-21T12:21:26;102772.78;;;32.55
34125;BMP280;20110;53.120;5.786;2022-09-21T12:24:10;102783.97;;;32.96
34125;BMP280;20110;53.120;5.786;2022-09-21T12:26:46;102777.25;;;33.01
34125;BMP280;20110;53.120;5.786;2022-09-21T12:29:41;102778.09;;;33.06
34125;BMP280;20110;53.120;5.786;2022-09-21T12:32:23;102771.31;;;32.89
34125;BMP280;20110;53.120;5.786;2022-09-21T12:34:58;102758.56;;;32.61
34125;BMP280;20110;53.120;5.786;2022-09-21T12:37:44;102757.00;;;31.38
34125;BMP280;20110;53.120;5.786;2022-09-21T12:40:24;102739.09;;;30.02
34125;BMP280;20110;53.120;5.786;2022-09-21T12:43:18;102733.56;;;28.95
34125;BMP280;20110;53.120;5.786;2022-09-21T12:46:03;102748.44;;;28.18
34125;BMP280;20110;53.120;5.786;2022-09-21T12:48:39;102751.91;;;27.28
34125;BMP280;20110;53.120;5.786;2022-09-21T12:54:05;102741.72;;;26.22
34125;BMP280;20110;53.120;5.786;2022-09-21T12:56:44;102746.69;;;25.95
34125;BMP280;20110;53.120;5.786;2022-09-21T13:08:12;102745.47;;;28.02
34125;BMP280;20110;53.120;5.786;2022-09-21T13:10:46;102759.19;;;28.88
34125;BMP280;20110;53.120;5.786;2022-09-21T13:13:45;102759.75;;;29.37
34125;BMP280;20110;53.120;5.786;2022-09-21T13:16:35;102738.88;;;29.57
34125;BMP280;20110;53.120;5.786;2022-09-21T13:19:20;102749.66;;;29.94
34125;BMP280;20110;53.120;5.786;2022-09-21T13:22:11;102754.91;;;30.17
34125;BMP280;20110;53.120;5.786;2022-09-21T13:24:46;102746.91;;;30.08
34125;BMP280;20110;53.120;5.786;2022-09-21T13:36:42;102729.69;;;30.64
34125;BMP280;20110;53.120;5.786;2022-09-21T13:41:35;102691.25;;;30.19
34125;BMP280;20110;53.120;5.786;2022-09-21T13:44:04;102719.22;;;30.31
34125;BMP280;20110;53.120;5.786;2022-09-21T13:47:00;102732.88;;;30.15
34125;BMP280;20110;53.120;5.786;2022-09-21T13:49:33;102710.81;;;29.70
34125;BMP280;20110;53.120;5.786;2022-09-21T13:54:53;102700.59;;;29.05
34125;BMP280;20110;53.120;5.786;2022-09-21T13:57:43;102730.88;;;29.09
34125;BMP280;20110;53.120;5.786;2022-09-21T14:02:51;102725.41;;;28.83
34125;BMP280;20110;53.120;5.786;2022-09-21T14:05:43;102697.63;;;28.50
34125;BMP280;20110;53.120;5.786;2022-09-21T14:11:07;102720.88;;;28.63
34125;BMP280;20110;53.120;5.786;2022-09-21T14:14:43;102719.50;;;28.50
34125;BMP280;20110;53.120;5.786;2022-09-21T14:24:40;102688.47;;;28.45
34125;BMP280;20110;53.120;5.786;2022-09-21T14:27:29;102693.63;;;28.90
34125;BMP280;20110;53.120;5.786;2022-09-21T14:30:22;102646.09;;;28.58
34125;BMP280;20110;53.120;5.786;2022-09-21T14:35:43;102699.78;;;28.77
34125;BMP280;20110;53.120;5.786;2022-09-21T14:38:22;102683.41;;;28.65
34125;BMP280;20110;53.120;5.786;2022-09-21T14:40:53;102703.47;;;28.95
34125;BMP280;20110;53.120;5.786;2022-09-21T14:43:30;102699.59;;;28.61
34125;BMP280;20110;53.120;5.786;2022-09-21T14:52:43;102697.41;;;28.71
34125;BMP280;20110;53.120;5.786;2022-09-21T14:59:12;102648.59;;;28.40
34125;BMP280;20110;53.120;5.786;2022-09-21T15:01:59;102648.00;;;28.30
34125;BMP280;20110;53.120;5.786;2022-09-21T15:07:37;102685.38;;;28.51
34125;BMP280;20110;53.120;5.786;2022-09-21T15:10:29;102664.06;;;28.13
34125;BMP280;20110;53.120;5.786;2022-09-21T15:14:18;102674.19;;;28.10
34125;BMP280;20110;53.120;5.786;2022-09-21T15:16:40;102673.22;;;28.29
34125;BMP280;20110;53.120;5.786;2022-09-21T15:19:27;102672.59;;;28.30
34125;BMP280;20110;53.120;5.786;2022-09-21T15:22:20;102671.00;;;28.50
34125;BMP280;20110;53.120;5.786;2022-09-21T15:24:56;102652.13;;;28.43
34125;BMP280;20110;53.120;5.786;2022-09-21T15:27:28;102646.03;;;28.19
34125;BMP280;20110;53.120;5.786;2022-09-21T15:30:01;102670.59;;;28.31
34125;BMP280;20110;53.120;5.786;2022-09-21T15:35:24;102659.59;;;27.94
34125;BMP280;20110;53.120;5.786;2022-09-21T15:37:53;102671.72;;;28.02
34125;BMP280;20110;53.120;5.786;2022-09-21T15:40:33;102664.81;;;28.01
34125;BMP280;20110;53.120;5.786;2022-09-21T15:45:43;102659.25;;;27.99
34125;BMP280;20110;53.120;5.786;2022-09-21T15:48:10;102645.25;;;27.93
34125;BMP280;20110;53.120;5.786;2022-09-21T15:50:39;102629.38;;;27.67
34125;BMP280;20110;53.120;5.786;2022-09-21T15:53:26;102644.78;;;27.62
34125;BMP280;20110;53.120;5.786;2022-09-21T15:55:53;102633.16;;;27.50
34125;BMP280;20110;53.120;5.786;2022-09-21T15:58:35;102658.69;;;27.43
34125;BMP280;20110;53.120;5.786;2022-09-21T16:01:16;102658.69;;;27.43
34125;BMP280;20110;53.120;5.786;2022-09-21T16:03:44;102633.38;;;27.19
34125;BMP280;20110;53.120;5.786;2022-09-21T16:06:25;102648.41;;;27.20
34125;BMP280;20110;53.120;5.786;2022-09-21T16:08:52;102611.84;;;26.90
34125;BMP280;20110;53.120;5.786;2022-09-21T16:14:15;102646.03;;;26.70
34125;BMP280;20110;53.120;5.786;2022-09-21T16:17:19;102625.66;;;26.38
34125;BMP280;20110;53.120;5.786;2022-09-21T16:22:42;102648.84;;;26.18
34125;BMP280;20110;53.120;5.786;2022-09-21T16:25:34;102651.44;;;25.85
34125;BMP280;20110;53.120;5.786;2022-09-21T16:28:34;102648.22;;;25.67
34125;BMP280;20110;53.120;5.786;2022-09-21T16:31:20;102634.28;;;25.42
34125;BMP280;20110;53.120;5.786;2022-09-21T16:38:43;102609.88;;;24.56
34125;BMP280;20110;53.120;5.786;2022-09-21T16:41:09;102643.03;;;24.54
34125;BMP280;20110;53.120;5.786;2022-09-21T16:43:36;102614.16;;;24.03
34125;BMP280;20110;53.120;5.786;2022-09-21T16:46:04;102579.78;;;23.79
34125;BMP280;20110;53.120;5.786;2022-09-21T16:48:33;102652.78;;;24.11
34125;BMP280;20110;53.120;5.786;2022-09-21T16:50:59;102606.03;;;23.67
34125;BMP280;20110;53.120;5.786;2022-09-21T16:53:25;102640.63;;;23.76
34125;BMP280;20110;53.120;5.786;2022-09-21T16:55:53;102635.66;;;23.55
34125;BMP280;20110;53.120;5.786;2022-09-21T16:58:20;102638.28;;;23.45
34125;BMP280;20110;53.120;5.786;2022-09-21T17:00:50;102620.38;;;23.16
34125;BMP280;20110;53.120;5.786;2022-09-21T17:03:18;102620.56;;;23.00
34125;BMP280;20110;53.120;5.786;2022-09-21T17:05:44;102644.53;;;23.04
34125;BMP280;20110;53.120;5.786;2022-09-21T17:08:11;102637.50;;;22.84
34125;BMP280;20110;53.120;5.786;2022-09-21T17:10:41;102644.50;;;22.70
34125;BMP280;20110;53.120;5.786;2022-09-21T17:13:10;102630.34;;;22.37
34125;BMP280;20110;53.120;5.786;2022-09-21T17:15:41;102652.56;;;22.35
34125;BMP280;20110;53.120;5.786;2022-09-21T17:18:11;102632.41;;;21.96
34125;BMP280;20110;53.120;5.786;2022-09-21T17:20:44;102641.63;;;21.93
34125;BMP280;20110;53.120;5.786;2022-09-21T17:23:10;102573.34;;;21.38
34125;BMP280;20110;53.120;5.786;2022-09-21T17:25:36;102626.63;;;21.60